Tiempo atmosférico en la estación meteorológica de Valencia II, València/Valencia (11 m.)



Fecha
DESCASC
Temp. máxima en grados centígrados (hora)
DESCASC
Temp. mínima en grados centígrados (hora)
DESCASC
Temp. media en grados centígrados
DESCASC
Racha de viento máxima en m/sg (hora)
DESCASC
Velocidad máxima media en intervalos de 10 minutos(hora)
DESCASC
Precipitaciones diarias en mm
DESCASC
Precipitaciones de 00:00 a 06:00 en mm
DESCASC
Precipitaciones de 06:00 a 12:00 en mm
DESCASC
Precipitaciones de 12:00 a 18:00 en mm
DESCASC
Precipitaciones de 18:00 a 24:00 en mm
DESCASC

Gráficas

Temp. máximas Temp. mínimas Temp. medias Precipitaciones Rachas de viento máximas Velocidades máximas media en intervalos de 10 minutos

Datos horarios

Fecha y hora oficial Temperatura (ºC) Velocidad del viento (km/h) Dirección del viento Racha (km/h) Dirección de racha Precipitación (mm) Presión (hPa) Tendencia (hPa) Humedad (%)
2019-10-19 23:00:00 19.9 3 Noroeste 9 Noroeste 0 -- -- 71
2019-10-19 22:00:00 20.7 3 Norte 9 Norte 0 -- -- 68
2019-10-19 21:00:00 21.6 3 Noroeste 6 Noroeste 0 -- -- 65
2019-10-19 20:00:00 21.6 0 Calma 12 Sudoeste 0 -- -- 62
2019-10-19 19:00:00 23.3 7 Sudeste 27 Este 0 -- -- 46
2019-10-19 18:00:00 23.8 10 Sudeste 26 Sur 0 -- -- 48
2019-10-19 17:00:00 24.9 9 Sur 28 Sudeste 0 -- -- 47
2019-10-19 16:00:00 25.2 12 Sudeste 30 Sudoeste 0 -- -- 44
2019-10-19 15:00:00 28 15 Sudoeste 36 Oeste 0 -- -- 33
2019-10-19 14:00:00 26.3 15 Sudoeste 33 Oeste 0 -- -- 36
2019-10-19 13:00:00 26.4 14 Oeste 32 Oeste 0 -- -- 39
2019-10-19 12:00:00 25.7 8 Oeste 25 Noroeste 0 -- -- 42
2019-10-19 11:00:00 23.5 7 Sudoeste 17 Sudoeste 0 -- -- 49
2019-10-19 10:00:00 21.2 5 Sudoeste 18 Oeste 0 -- -- 57
2019-10-19 09:00:00 19.4 4 Sur 10 Sudoeste 0 -- -- 61
2019-10-19 08:00:00 20 6 Sudoeste 18 Sudoeste 0 -- -- 57
2019-10-19 07:00:00 20.3 9 Sudoeste 15 Sudoeste 0 -- -- 56
2019-10-19 06:00:00 19.8 9 Sur 14 Sudoeste 0 -- -- 54
2019-10-19 05:00:00 20.2 6 Sudoeste 17 Sudoeste 0 -- -- 51
2019-10-19 04:00:00 20.7 8 Sudoeste 12 Sudoeste 0 -- -- 51
2019-10-19 03:00:00 20.8 5 Sur 14 Sur 0 -- -- 51
2019-10-19 02:00:00 21 6 Sur 13 Oeste 0 -- -- 49
2019-10-19 01:00:00 21.2 6 Sudoeste 11 Sudoeste 0 -- -- 50
2019-10-19 00:00:00 21.6 4 Sudoeste 10 Sudoeste 0 -- -- 50
2019-10-18 23:00:00 22.3 4 Sur 10 Sur 0 -- -- 48
2019-10-18 22:00:00 23.1 5 Sur 14 Sur 0 -- -- 46
2019-10-18 21:00:00 23.9 5 Sur 17 Sur 0 -- -- 43
2019-10-18 20:00:00 25.9 7 Sudoeste 20 Sudoeste 0 -- -- 36
2019-10-18 19:00:00 26.4 7 Sudoeste 15 Oeste 0 -- -- 35
2019-10-18 18:00:00 27 6 Noroeste 25 Sudoeste 0 -- -- 36
2019-10-18 17:00:00 27.9 9 Oeste 24 Oeste 0 -- -- 35
2019-10-18 16:00:00 27.5 12 Oeste 37 Oeste 0 -- -- 35
2019-10-18 15:00:00 27.5 11 Oeste 30 Oeste 0 -- -- 37
2019-10-18 14:00:00 27.1 13 Sudoeste 27 Oeste 0 -- -- 39
2019-10-18 13:00:00 26.1 10 Sudoeste 26 Sur 0 -- -- 40
2019-10-18 12:00:00 24.7 10 Sur 21 Sudoeste 0 -- -- 42
2019-10-18 11:00:00 21.9 10 Sudoeste 20 Sudoeste 0 -- -- 49
2019-10-18 10:00:00 20.6 10 Sudoeste 18 Sudoeste 0 -- -- 52
2019-10-18 09:00:00 19 6 Sudoeste 15 Sudoeste 0 -- -- 54
2019-10-18 08:00:00 18.3 2 Sudoeste 14 Sudoeste 0 -- -- 55
2019-10-18 07:00:00 18.7 9 Sudoeste 16 Sudoeste 0 -- -- 54
2019-10-18 06:00:00 18.5 6 Sudoeste 13 Oeste 0 -- -- 56
2019-10-18 05:00:00 19 6 Oeste 13 Oeste 0 -- -- 54
2019-10-18 04:00:00 20 8 Oeste 15 Sudoeste 0 -- -- 51
2019-10-18 03:00:00 20.2 7 Oeste 17 Oeste 0 -- -- 51
2019-10-18 02:00:00 19.9 6 Oeste 13 Oeste 0 -- -- 53
2019-10-18 01:00:00 19.2 6 Sur 11 Sur 0 -- -- 61
2019-10-18 00:00:00 18.5 0 Calma 4 Sudeste 0 -- -- 67
2019-10-17 23:00:00 19.3 0 Calma 4 Oeste 0 -- -- 61
2019-10-17 22:00:00 20.2 2 Norte 17 Norte 0 -- -- 55
2019-10-17 21:00:00 21.3 10 Norte 17 Norte 0 -- -- 51
2019-10-17 20:00:00 21.7 6 Norte 17 Nordeste 0 -- -- 47
2019-10-17 19:00:00 23.3 5 Norte 21 Sudoeste 0 -- -- 41
2019-10-17 18:00:00 26.2 10 Sudoeste 24 Oeste 0 -- -- 28
2019-10-17 17:00:00 27.7 12 Sudoeste 29 Sudoeste 0 -- -- 25
2019-10-17 16:00:00 27.4 11 Sudoeste 28 Sudoeste 0 -- -- 24
2019-10-17 15:00:00 28.1 14 Sudoeste 26 Sudoeste 0 -- -- 24
2019-10-17 14:00:00 27.9 9 Oeste 26 Sudoeste 0 -- -- 23
2019-10-17 13:00:00 26.2 8 Sudoeste 27 Sur 0 -- -- 26
2019-10-17 12:00:00 24.5 13 Sudoeste 25 Oeste 0 -- -- 28
2019-10-17 11:00:00 21 8 Sudoeste 17 Sudoeste 0 -- -- 34
2019-10-17 10:00:00 18 5 Oeste 13 Oeste 0 -- -- 38
2019-10-17 09:00:00 15.8 6 Oeste 11 Oeste 0 -- -- 40
2019-10-17 08:00:00 15.3 3 Oeste 10 Oeste 0 -- -- 41
2019-10-17 07:00:00 15.7 5 Sudoeste 13 Sudoeste 0 -- -- 40
2019-10-17 06:00:00 15.7 7 Sudoeste 11 Sudoeste 0 -- -- 39
2019-10-17 05:00:00 15.8 2 Sudoeste 9 Oeste 0 -- -- 39
2019-10-17 04:00:00 16.5 3 Oeste 13 Sudoeste 0 -- -- 37
2019-10-17 03:00:00 16.7 5 Sudoeste 9 Sudoeste 0 -- -- 36
2019-10-17 02:00:00 17.1 3 Sudoeste 8 Sudoeste 0 -- -- 35
2019-10-17 01:00:00 18.6 5 Sudoeste 16 Sudoeste 0 -- -- 33
2019-10-17 00:00:00 18.9 6 Sudoeste 13 Sudoeste 0 -- -- 33
2019-10-16 23:00:00 19.7 4 Sur 12 Sudoeste 0 -- -- 32
2019-10-16 22:00:00 21 6 Sudoeste 15 Sudoeste 0 -- -- 31
2019-10-16 21:00:00 21.4 9 Sudoeste 17 Sudoeste 0 -- -- 34
2019-10-16 20:00:00 21.7 6 Sur 17 Sudeste 0 -- -- 37
2019-10-16 19:00:00 22.6 6 Sudeste 23 Sudeste 0 -- -- 36
2019-10-16 18:00:00 23.1 10 Sudeste 26 Este 0 -- -- 35
2019-10-16 17:00:00 26 14 Sudoeste 28 Sudoeste 0 -- -- 22
2019-10-16 16:00:00 26.1 11 Sudoeste 28 Sur 0 -- -- 23
2019-10-16 15:00:00 24.7 9 Sudoeste 26 Sur 0 -- -- 24
2019-10-16 14:00:00 24.7 12 Sudoeste 30 Sudeste 0 -- -- 26
2019-10-16 13:00:00 23.1 13 Sudoeste 26 Sudoeste 0 -- -- 29
2019-10-16 12:00:00 21.6 12 Sudoeste 25 Sudoeste 0 -- -- 31
2019-10-16 11:00:00 18.7 8 Sur 15 Sudoeste 0 -- -- 36
2019-10-16 10:00:00 15.7 4 Oeste 13 Sudoeste 0 -- -- 42
2019-10-16 09:00:00 14.2 6 Oeste 14 Oeste 0 -- -- 43
2019-10-16 08:00:00 13.4 5 Sudoeste 10 Sudoeste 0 -- -- 44
2019-10-16 07:00:00 14 6 Sudoeste 11 Sudoeste 0 -- -- 42
2019-10-16 06:00:00 13.7 4 Sudoeste 10 Oeste 0 -- -- 42
2019-10-16 05:00:00 13.9 0 Calma 7 Sudoeste 0 -- -- 40
2019-10-16 04:00:00 15.4 2 Sur 9 Oeste 0 -- -- 34
2019-10-16 03:00:00 15.3 4 Sudoeste 9 Oeste 0 -- -- 34
2019-10-16 02:00:00 16.3 4 Oeste 12 Oeste 0 -- -- 32
2019-10-16 01:00:00 17.6 4 Sudoeste 16 Oeste 0 -- -- 29
2019-10-16 00:00:00 18.1 6 Sudoeste 16 Sudoeste 0 -- -- 28
2019-10-15 23:00:00 18.7 6 Oeste 18 Sudoeste 0 -- -- 28
2019-10-15 22:00:00 19.6 8 Oeste 19 Sur 0 -- -- 26
2019-10-15 21:00:00 20.5 8 Sudoeste 19 Sur 0 -- -- 26
2019-10-15 20:00:00 21.3 6 Sur 21 Sudoeste 0 -- -- 26
2019-10-15 19:00:00 23.1 12 Sur 22 Sudoeste 0 -- -- 23
2019-10-15 18:00:00 23.7 5 Sudeste 22 Sudeste 0 -- -- 25
2019-10-15 17:00:00 23.6 10 Este 21 Este 0 -- -- 26
2019-10-15 16:00:00 24.1 8 Sudeste 20 Sudeste 0 -- -- 24
2019-10-15 15:00:00 23.4 3 Sudeste 18 Sudoeste 0 -- -- 23
2019-10-15 14:00:00 22.9 9 Sudoeste 23 Oeste 0 -- -- 22
2019-10-15 13:00:00 22 7 Oeste 24 Sudoeste 0 -- -- 25
2019-10-15 12:00:00 20.2 9 Sudoeste 19 Sudoeste 0 -- -- 29
2019-10-15 11:00:00 18 8 Sudoeste 18 Sudoeste 0 -- -- 36
2019-10-15 10:00:00 16.1 9 Oeste 22 Oeste 0 -- -- 43
2019-10-15 09:00:00 15 12 Sudoeste 32 Sudoeste 0 -- -- 45
2019-10-15 08:00:00 15.2 10 Sudoeste 31 Sudoeste 0 -- -- 44
2019-10-15 07:00:00 15.5 9 Sudoeste 21 Sudoeste 0 -- -- 43
2019-10-15 06:00:00 16 9 Sudoeste 30 Sudoeste 0 -- -- 42
2019-10-15 05:00:00 16.6 12 Sudoeste 31 Oeste 0 -- -- 42
2019-10-15 04:00:00 17.1 10 Sudoeste 33 Oeste 0 -- -- 41
2019-10-15 03:00:00 18.1 12 Oeste 40 Sudoeste 0 -- -- 38
2019-10-15 02:00:00 19.1 17 Oeste 40 Oeste 0 -- -- 35
2019-10-15 01:00:00 20 9 Oeste 26 Oeste 0 -- -- 37
2019-10-15 00:00:00 21.5 15 Oeste 35 Oeste 0 -- -- 35
2019-10-14 23:00:00 21.7 8 Oeste 24 Oeste 0 -- -- 50
2019-10-14 22:00:00 21.3 2 Sur 20 Sudeste 0 -- -- 80
2019-10-14 21:00:00 22 7 Sur 17 Sudeste 0 -- -- 76
2019-10-14 20:00:00 22.3 7 Sudeste 18 Sudeste 0 -- -- 74
2019-10-14 19:00:00 22.8 3 Sur 17 Sur 0 -- -- 71
2019-10-14 18:00:00 23.4 7 Sudeste 17 Sudeste 0 -- -- 62
2019-10-14 17:00:00 24.3 5 Sudeste 17 Sudoeste 0 -- -- 64
2019-10-14 16:00:00 23.1 8 Sudeste 15 Este 0 -- -- 69
2019-10-14 15:00:00 23.5 2 Norte 21 Este 0 -- -- 71
2019-10-14 14:00:00 23.4 0 Calma 12 Norte 0.6 -- -- 74
2019-10-14 13:00:00 22.9 3 Norte 18 Este 0 -- -- 65
2019-10-14 12:00:00 22.9 4 Noroeste 22 Norte 0 -- -- 67
2019-10-14 11:00:00 22.4 10 Norte 19 Norte 0 -- -- 70
2019-10-14 10:00:00 21.8 5 Norte 14 Norte 0 -- -- 76
2019-10-14 09:00:00 20.5 6 Norte 12 Norte 0 -- -- 80
2019-10-14 08:00:00 19.5 3 Norte 7 Nordeste 0 -- -- 85
2019-10-14 07:00:00 19.6 0 Calma 7 Norte 0 -- -- 85
2019-10-14 06:00:00 19.5 2 Norte 5 Norte 0 -- -- 85
2019-10-14 05:00:00 19.8 2 Noroeste 6 Noroeste 0 -- -- 85
2019-10-14 04:00:00 19.8 0 Calma 6 Norte 0 -- -- 86
2019-10-14 03:00:00 19.9 4 Norte 8 Norte 0 -- -- 86
2019-10-14 02:00:00 20.2 2 Norte 6 Norte 0 -- -- 85
2019-10-14 01:00:00 20.6 3 Norte 5 Norte 0 -- -- 85
2019-10-14 00:00:00 21.3 0 Calma 6 Norte 0 -- -- 80
2019-10-13 23:00:00 22 3 Norte 6 Norte 0 -- -- 78
2019-10-13 22:00:00 22.5 2 Norte 7 Norte 0 -- -- 75
2019-10-13 21:00:00 23 0 Calma 12 Este 0 -- -- 74
2019-10-13 20:00:00 23.5 4 Este 16 Este 0 -- -- 73
2019-10-13 19:00:00 23.7 8 Este 18 Este 0 -- -- 72
2019-10-13 18:00:00 24.1 9 Este 19 Este 0 -- -- 68
2019-10-13 17:00:00 25.5 6 Este 19 Sudeste 0 -- -- 58
2019-10-13 16:00:00 25.2 10 Este 19 Este 0 -- -- 56
2019-10-13 15:00:00 25.1 10 Este 18 Sudeste 0 -- -- 56
2019-10-13 14:00:00 26.2 5 Este 15 Este 0 -- -- 53
2019-10-13 13:00:00 26 3 Este 14 Este 0 -- -- 56
2019-10-13 12:00:00 24.3 0 Calma 6 Sudoeste 0 -- -- 62
2019-10-13 11:00:00 23.5 3 Sudoeste 9 Sudoeste 0 -- -- 67
2019-10-13 10:00:00 21.1 2 Oeste 7 Oeste 0 -- -- 79
2019-10-13 09:00:00 19.2 0 Calma 5 Sudoeste 0 -- -- 88
2019-10-13 08:00:00 19 0 Calma 4 Sudoeste 0 -- -- 89
2019-10-13 07:00:00 19.6 0 Calma 5 Oeste 0 -- -- 89
2019-10-13 06:00:00 19.7 0 Calma 5 Noroeste 0 -- -- 88
2019-10-13 05:00:00 20.1 0 Calma 5 Norte 0 -- -- 88
2019-10-13 04:00:00 20 2 Norte 6 Noroeste 0 -- -- 88
2019-10-13 03:00:00 20.3 0 Calma 4 Norte 0 -- -- 87
2019-10-13 02:00:00 21.1 2 Noroeste 9 Norte 0 -- -- 87
2019-10-13 01:00:00 21.9 4 Norte 13 Norte 0 -- -- 87
2019-10-13 00:00:00 22 5 Norte 10 Norte 0 -- -- 87
2019-10-12 23:00:00 21.7 0 Calma 4 Norte 0 -- -- 85
2019-10-12 22:00:00 22.1 0 Calma 4 Este 0 -- -- 81
2019-10-12 21:00:00 22.5 0 Calma 5 Sudeste 0 -- -- 77
2019-10-12 20:00:00 23.2 0 Calma 9 Sudeste 0 -- -- 73
2019-10-12 19:00:00 23.7 3 Sudeste 12 Nordeste 0 -- -- 71
2019-10-12 18:00:00 24 2 Este 16 Norte 0 -- -- 70
2019-10-12 17:00:00 25 4 Norte 17 Sudeste 0 -- -- 67
2019-10-12 16:00:00 24.7 2 Nordeste 21 Nordeste 0 -- -- 69
2019-10-12 15:00:00 24.9 2 Nordeste 20 Norte 0 -- -- 67
2019-10-12 14:00:00 26.1 5 Norte 17 Norte 0 -- -- 59
2019-10-12 13:00:00 24.7 4 Nordeste 17 Nordeste 0 -- -- 65
2019-10-12 12:00:00 24.2 5 Norte 16 Norte 0 -- -- 67
2019-10-12 11:00:00 22.9 5 Norte 14 Norte 0 -- -- 73
2019-10-12 10:00:00 21.7 6 Norte 13 Norte 0 -- -- 76
2019-10-12 09:00:00 20.6 0 Calma 6 Norte 0 -- -- 82
2019-10-12 08:00:00 20.5 0 Calma 6 Noroeste 0 -- -- 83
2019-10-12 07:00:00 20.5 2 Noroeste 6 Noroeste 0 -- -- 84
2019-10-12 06:00:00 20.7 0 Calma 6 Norte 0 -- -- 83
2019-10-12 05:00:00 20.7 3 Norte 8 Norte 0 -- -- 84
2019-10-12 04:00:00 20.8 4 Norte 8 Norte 0 -- -- 84
2019-10-12 03:00:00 20.6 3 Norte 7 Norte 0 -- -- 84
2019-10-12 02:00:00 21 3 Norte 5 Norte 0 -- -- 82
2019-10-12 01:00:00 21.5 0 Calma 6 Norte 0 -- -- 79
2019-10-12 00:00:00 22.1 0 Calma 10 Este 0 -- -- 75
2019-10-11 23:00:00 23 2 Este 11 Este 0 -- -- 72
2019-10-11 22:00:00 23.2 3 Sudeste 14 Este 0 -- -- 70
2019-10-11 21:00:00 23.2 8 Sudeste 17 Este 0 -- -- 68
2019-10-11 20:00:00 23.3 6 Sudeste 19 Este 0 -- -- 67
2019-10-11 19:00:00 23.5 8 Sudeste 20 Este 0 -- -- 66
2019-10-11 18:00:00 23.9 8 Sudeste 22 Este 0 -- -- 66
2019-10-11 17:00:00 24.1 9 Sudeste 21 Este 0 -- -- 63
2019-10-11 16:00:00 24.9 9 Sudeste 23 Este 0 -- -- 60
2019-10-11 15:00:00 25.4 9 Sudeste 23 Este 0 -- -- 55
2019-10-11 14:00:00 25.3 10 Sudeste 19 Este 0 -- -- 55
2019-10-11 13:00:00 25.1 4 Sur 14 Sudeste 0 -- -- 57
2019-10-11 12:00:00 25.3 6 Sudoeste 16 Sudeste 0 -- -- 56
2019-10-11 11:00:00 23.8 4 Oeste 10 Oeste 0 -- -- 61
2019-10-11 10:00:00 22.3 3 Sudoeste 7 Sudoeste 0 -- -- 71
2019-10-11 09:00:00 20.7 2 Sudoeste 4 Sudoeste 0 -- -- 79
2019-10-11 08:00:00 20.3 0 Calma 4 Noroeste 0 -- -- 75
2019-10-11 07:00:00 21 0 Calma 5 Sudoeste 0 -- -- 70
2019-10-11 06:00:00 21.1 0 Calma 6 Noroeste 0 -- -- 69
2019-10-11 05:00:00 21.3 0 Calma 8 Oeste 0 -- -- 67
2019-10-11 04:00:00 21.1 3 Noroeste 9 Noroeste 0 -- -- 69
2019-10-11 03:00:00 21.2 3 Norte 8 Norte 0 -- -- 72
2019-10-11 02:00:00 21.2 4 Norte 8 Noroeste 0 -- -- 72
2019-10-11 01:00:00 21.3 2 Norte 8 Norte 0 -- -- 71
2019-10-11 00:00:00 21.3 4 Norte 9 Norte 0 -- -- 71
2019-10-10 23:00:00 21.5 2 Norte 8 Norte 0 -- -- 70
2019-10-10 22:00:00 21.5 2 Norte 9 Noroeste 0 -- -- 68
2019-10-10 21:00:00 21.6 5 Norte 10 Norte 0 -- -- 66
2019-10-10 20:00:00 21.8 4 Norte 14 Norte 0 -- -- 64
2019-10-10 19:00:00 21.9 5 Norte 15 Norte 0 -- -- 65
2019-10-10 18:00:00 22.7 5 Nordeste 17 Norte 0 -- -- 62
2019-10-10 17:00:00 22.6 5 Nordeste 15 Norte 0 -- -- 58
2019-10-10 16:00:00 22.7 0 Calma 21 Nordeste 0 -- -- 56
2019-10-10 15:00:00 22.8 5 Norte 26 Norte 0 -- -- 54
2019-10-10 14:00:00 22.5 8 Norte 22 Norte 0 -- -- 57
2019-10-10 13:00:00 22.4 7 Norte 24 Norte 0 -- -- 49
2019-10-10 12:00:00 22.3 10 Norte 24 Norte 0 -- -- 50
2019-10-10 11:00:00 22.1 8 Norte 23 Norte 0 -- -- 57
2019-10-10 10:00:00 21 9 Norte 19 Norte 0 -- -- 68
2019-10-10 09:00:00 20.3 8 Norte 19 Norte 0 -- -- 74
2019-10-10 08:00:00 20 9 Norte 19 Norte 0 -- -- 79
2019-10-10 07:00:00 20.1 9 Norte 22 Norte 0 -- -- 82
2019-10-10 06:00:00 20.7 11 Norte 23 Norte 0 -- -- 79
2019-10-10 05:00:00 20.9 0 Calma 5 Noroeste 0 -- -- 81
2019-10-10 04:00:00 21 2 Norte 5 Norte 0 -- -- 81
2019-10-10 03:00:00 20.9 3 Norte 5 Norte 0 -- -- 82
2019-10-10 02:00:00 20.9 3 Norte 5 Norte 0 -- -- 80
2019-10-10 01:00:00 21.1 3 Norte 5 Norte 0 -- -- 78
2019-10-10 00:00:00 21.6 0 Calma 7 Norte 0 -- -- 74
2019-10-09 23:00:00 22.5 0 Calma 10 Este 0 -- -- 71
2019-10-09 22:00:00 22.9 0 Calma 12 Este 0 -- -- 69
2019-10-09 21:00:00 23.2 0 Calma 15 Sudeste 0 -- -- 68
2019-10-09 20:00:00 23.4 0 Calma 18 Sudeste 0 -- -- 67
2019-10-09 19:00:00 23.9 5 Este 18 Sudeste 0 -- -- 66
2019-10-09 18:00:00 24.4 6 Este 17 Sudeste 0 -- -- 63
2019-10-09 17:00:00 25.7 0 Calma 19 Este 0 -- -- 56
2019-10-09 16:00:00 26.5 4 Este 15 Este 0 -- -- 52
2019-10-09 15:00:00 25.8 8 Este 17 Este 0 -- -- 55
2019-10-09 14:00:00 25.6 5 Sudeste 15 Sudeste 0 -- -- 51
2019-10-09 13:00:00 25.9 2 Nordeste 15 Este 0 -- -- 55
2019-10-09 12:00:00 25.7 2 Nordeste 11 Norte 0 -- -- 58
2019-10-09 11:00:00 23.1 4 Norte 8 Nordeste 0 -- -- 72
2019-10-09 10:00:00 20.9 0 Calma 5 Sudoeste 0 -- -- 73
2019-10-09 09:00:00 18.6 0 Calma 5 Norte 0 -- -- 87
2019-10-09 08:00:00 18.1 2 Norte 3 Norte 0 -- -- 85
2019-10-09 07:00:00 18.3 3 Norte 4 Norte 0 -- -- 84
2019-10-09 06:00:00 18.7 0 Calma -- -- 0 -- -- 82
2019-10-09 05:00:00 19.3 0 Calma 4 Oeste 0 -- -- 79
2019-10-09 04:00:00 19.9 0 Calma 8 Oeste 0 -- -- 76
2019-10-09 03:00:00 20.2 4 Oeste 10 Oeste 0 -- -- 76
2019-10-09 02:00:00 20.6 2 Oeste 9 Sudoeste 0 -- -- 75
2019-10-09 01:00:00 20.7 0 Calma 6 Sudoeste 0 -- -- 76
2019-10-09 00:00:00 21.3 0 Calma 11 Norte 0 -- -- 76
2019-10-08 23:00:00 22.2 6 Norte 13 Norte 0 -- -- 78
2019-10-08 22:00:00 22.8 6 Norte 12 Norte 0 -- -- 75
2019-10-08 21:00:00 23.1 3 Norte 9 Este 0 -- -- 70
2019-10-08 20:00:00 24.6 5 Este 18 Este 0 -- -- 61
2019-10-08 19:00:00 25 9 Este 22 Este 0 -- -- 58
2019-10-08 18:00:00 25.5 8 Sudeste 22 Este 0 -- -- 54
2019-10-08 17:00:00 25.6 9 Sudeste 23 Este 0 -- -- 51
2019-10-08 16:00:00 25.3 11 Sudeste 25 Este 0 -- -- 50
2019-10-08 15:00:00 24.9 13 Este 26 Este 0 -- -- 52
2019-10-08 14:00:00 26.3 7 Sudeste 18 Este 0 -- -- 46
2019-10-08 13:00:00 26.6 3 Sudoeste 16 Sudoeste 0 -- -- 45
2019-10-08 12:00:00 24.8 6 Sudoeste 14 Sudoeste 0 -- -- 50
2019-10-08 11:00:00 22.2 0 Calma 12 Sudoeste 0 -- -- 55
2019-10-08 10:00:00 19.9 5 Sudoeste 13 Oeste 0 -- -- 62
2019-10-08 09:00:00 17.8 3 Sudoeste 8 Oeste 0 -- -- 70
2019-10-08 08:00:00 17.1 2 Sudoeste 11 Sudoeste 0 -- -- 72
2019-10-08 07:00:00 17.5 3 Sudoeste 11 Oeste 0 -- -- 71
2019-10-08 06:00:00 17.4 0 Calma 9 Sudoeste 0 -- -- 71
2019-10-08 05:00:00 17.7 0 Calma 11 Sudoeste 0 -- -- 70
2019-10-08 04:00:00 18.1 4 Sudoeste 11 Sudoeste 0 -- -- 70
2019-10-08 03:00:00 18.3 4 Sudoeste 6 Oeste 0 -- -- 70
2019-10-08 02:00:00 18.7 2 Oeste 7 Sudoeste 0 -- -- 68
2019-10-08 01:00:00 19.2 3 Sudoeste 6 Oeste 0 -- -- 65
2019-10-08 00:00:00 19.5 5 Sudoeste 9 Oeste 0 -- -- 64
2019-10-07 23:00:00 20 4 Norte 6 Norte 0 -- -- 62
2019-10-07 22:00:00 20.4 3 Norte 6 Norte 0 -- -- 61
2019-10-07 21:00:00 20.9 0 Calma 7 Nordeste 0 -- -- 56
2019-10-07 20:00:00 22.1 4 Norte 12 Norte 0 -- -- 49
2019-10-07 19:00:00 22.9 5 Sudeste 15 Nordeste 0 -- -- 46
2019-10-07 18:00:00 23 3 Este 17 Este 0 -- -- 46
2019-10-07 17:00:00 23.5 3 Este 22 Este 0 -- -- 43
2019-10-07 16:00:00 23.7 8 Este 24 Este 0 -- -- 40
2019-10-07 15:00:00 25 3 Este 23 Este 0 -- -- 39
2019-10-07 14:00:00 24.9 5 Este 27 Norte 0 -- -- 39
2019-10-07 13:00:00 26 9 Este 30 Este 0 -- -- 37
2019-10-07 12:00:00 26.3 4 Sudeste 15 Este 0 -- -- 31
2019-10-07 11:00:00 24.1 5 Sudoeste 15 Oeste 0 -- -- 39
2019-10-07 10:00:00 20.9 5 Norte 13 Norte 0 -- -- 50
2019-10-07 09:00:00 19.1 3 Sudoeste 11 Oeste 0 -- -- 65
2019-10-07 08:00:00 18.9 3 Sur 13 Oeste 0 -- -- 64
2019-10-07 07:00:00 18.2 5 Sudoeste 11 Sudoeste 0 -- -- 79
2019-10-07 06:00:00 18.8 3 Sudoeste 10 Oeste 0 -- -- 87
2019-10-07 05:00:00 19.2 2 Sudoeste 6 Sudoeste 0 -- -- 87
2019-10-07 04:00:00 19.7 2 Oeste 8 Oeste 0 -- -- 87
2019-10-07 03:00:00 20.1 3 Oeste 7 Oeste 0 -- -- 87
2019-10-07 02:00:00 20.3 0 Calma 8 Norte 0 -- -- 86
2019-10-07 01:00:00 20.8 5 Norte 10 Norte 0 -- -- 85
2019-10-07 00:00:00 21.4 0 Calma 10 Oeste 0 -- -- 85
2019-10-06 23:00:00 21.5 0 Calma 8 Norte 0 -- -- 83
2019-10-06 22:00:00 22.1 4 Norte 10 Norte 0 -- -- 81
2019-10-06 21:00:00 22.4 0 Calma 6 Norte 0 -- -- 79
2019-10-06 20:00:00 22.9 0 Calma 10 Este 0 -- -- 75
2019-10-06 19:00:00 23.4 4 Este 15 Este 0 -- -- 71
2019-10-06 18:00:00 23.8 7 Este 18 Este 0 -- -- 68
2019-10-06 17:00:00 24.4 3 Este 14 Este 0 -- -- 62
2019-10-06 16:00:00 25.2 5 Este 19 Este 0 -- -- 58
2019-10-06 15:00:00 25.5 9 Este 19 Este 0 -- -- 54
2019-10-06 14:00:00 26.7 3 Sudeste 14 Sudeste 0 -- -- 48
2019-10-06 13:00:00 26.1 5 Este 15 Este 0 -- -- 51
2019-10-06 12:00:00 26 0 Calma 11 Este 0 -- -- 52
2019-10-06 11:00:00 22.3 2 Oeste 9 Noroeste 0 -- -- 60
2019-10-06 10:00:00 20.2 2 Oeste 13 Sudoeste 0 -- -- 69
2019-10-06 09:00:00 18.3 0 Calma 9 Oeste 0 -- -- 78
2019-10-06 08:00:00 17.7 3 Oeste 10 Oeste 0 -- -- 79
2019-10-06 07:00:00 17.7 0 Calma 8 Oeste 0 -- -- 80
2019-10-06 06:00:00 18.1 0 Calma 7 Oeste 0 -- -- 79
2019-10-06 05:00:00 18.5 3 Sudoeste 8 Oeste 0 -- -- 76
2019-10-06 04:00:00 18.7 3 Oeste 7 Oeste 0 -- -- 76
2019-10-06 03:00:00 19.1 3 Oeste 7 Oeste 0 -- -- 76
2019-10-06 02:00:00 19.4 0 Calma 6 Sudoeste 0 -- -- 77
2019-10-06 01:00:00 19.9 2 Oeste 6 Noroeste 0 -- -- 77
2019-10-06 00:00:00 20.2 0 Calma 5 Noroeste 0 -- -- 77
2019-10-05 23:00:00 20.9 2 Norte 7 Noroeste 0 -- -- 77
2019-10-05 22:00:00 21.6 2 Norte 7 Norte 0 -- -- 77
2019-10-05 21:00:00 22.3 0 Calma 7 Norte 0 -- -- 73
2019-10-05 20:00:00 22.9 0 Calma 12 Norte 0 -- -- 68
2019-10-05 19:00:00 23.6 4 Este 15 Este 0 -- -- 58
2019-10-05 18:00:00 23.9 8 Este 22 Sudeste 0 -- -- 55
2019-10-05 17:00:00 25 5 Este 23 Este 0 -- -- 50
2019-10-05 16:00:00 25.5 6 Este 27 Este 0 -- -- 49
2019-10-05 15:00:00 25.1 12 Este 27 Este 0 -- -- 52
2019-10-05 14:00:00 25.9 8 Sudeste 22 Este 0 -- -- 48
2019-10-05 13:00:00 27.2 3 Sudeste 11 Sudeste 0 -- -- 42
2019-10-05 12:00:00 25.9 0 Calma 11 Sudoeste 0 -- -- 46
2019-10-05 11:00:00 23.5 2 Oeste 9 Sur 0 -- -- 43
2019-10-05 10:00:00 20.4 0 Calma 9 Oeste 0 -- -- 52
2019-10-05 09:00:00 17.6 2 Oeste 7 Oeste 0 -- -- 64
2019-10-05 08:00:00 17.4 2 Oeste 11 Oeste 0 -- -- 65
2019-10-05 07:00:00 17.2 3 Oeste 7 Sudoeste 0 -- -- 71
2019-10-05 06:00:00 17.5 0 Calma 5 Oeste 0 -- -- 72
2019-10-05 05:00:00 18 0 Calma 7 Sudoeste 0 -- -- 70
2019-10-05 04:00:00 18.3 3 Oeste 7 Oeste 0 -- -- 70
2019-10-05 03:00:00 18.3 0 Calma 8 Norte 0 -- -- 71
2019-10-05 02:00:00 19.3 0 Calma 9 Sudoeste 0 -- -- 68
2019-10-05 01:00:00 20 5 Sudoeste 9 Sudoeste 0 -- -- 71
2019-10-05 00:00:00 20.6 2 Oeste 7 Oeste 0 -- -- 75
2019-10-04 23:00:00 21.3 3 Noroeste 14 Norte 0 -- -- 82
2019-10-04 22:00:00 22.3 7 Norte 15 Norte 0 -- -- 83
2019-10-04 21:00:00 23 5 Norte 10 Norte 0 -- -- 81
2019-10-04 20:00:00 23.9 2 Este 12 Este 0 -- -- 75
2019-10-04 19:00:00 24.4 8 Sudeste 22 Este 0 -- -- 69
2019-10-04 18:00:00 25.2 11 Este 23 Este 0 -- -- 51
2019-10-04 17:00:00 26.4 9 Sudeste 22 Este 0 -- -- 42
2019-10-04 16:00:00 26.9 10 Sudeste 23 Este 0 -- -- 37
2019-10-04 15:00:00 27.5 9 Este 19 Sudoeste 0 -- -- 34
2019-10-04 14:00:00 28.6 6 Sudeste 16 Este 0 -- -- 30
2019-10-04 13:00:00 27.5 4 Sudeste 11 Sudeste 0 -- -- 27
2019-10-04 12:00:00 26.8 2 Sudoeste 11 Oeste 0 -- -- 33
2019-10-04 11:00:00 22.9 3 Sudoeste 15 Sudoeste 0 -- -- 38
2019-10-04 10:00:00 20.7 6 Oeste 17 Oeste 0 -- -- 41
2019-10-04 09:00:00 18 5 Oeste 23 Oeste 0 -- -- 50
2019-10-04 08:00:00 16.8 10 Oeste 18 Sudoeste 0 -- -- 55
2019-10-04 07:00:00 16.4 5 Sudoeste 11 Oeste 0 -- -- 62
2019-10-04 06:00:00 17 5 Oeste 13 Sudoeste 0 -- -- 62
2019-10-04 05:00:00 17.2 6 Oeste 14 Oeste 0 -- -- 65
2019-10-04 04:00:00 17.5 5 Oeste 11 Oeste 0 -- -- 67
2019-10-04 03:00:00 18.1 3 Oeste 9 Norte 0 -- -- 68
2019-10-04 02:00:00 18.2 0 Calma 8 Oeste 0 -- -- 73
2019-10-04 01:00:00 19 0 Calma 8 Norte 0 -- -- 72
2019-10-04 00:00:00 19.5 4 Norte 8 Norte 0 -- -- 70
2019-10-03 23:00:00 20.2 4 Norte 9 Norte 0 -- -- 68
2019-10-03 22:00:00 20.4 4 Norte 10 Norte 0 -- -- 73
2019-10-03 21:00:00 22.2 2 Sur 13 Sudeste 0 -- -- 62
2019-10-03 20:00:00 22.9 6 Sudeste 17 Sudeste 0 -- -- 53
2019-10-03 19:00:00 23.2 8 Sudeste 20 Este 0 -- -- 49
2019-10-03 18:00:00 23.8 10 Sudeste 24 Este 0 -- -- 43
2019-10-03 17:00:00 24 13 Sudeste 24 Este 0 -- -- 38
2019-10-03 16:00:00 25 11 Este 21 Este 0 -- -- 34
2019-10-03 15:00:00 25.8 6 Norte 14 Norte 0 -- -- 33
2019-10-03 14:00:00 26 0 Calma 12 Oeste 0 -- -- 31
2019-10-03 13:00:00 24.4 3 Oeste 11 Sudoeste 0 -- -- 34
2019-10-03 12:00:00 22.6 4 Oeste 13 Oeste 0 -- -- 37
2019-10-03 11:00:00 21.1 10 Oeste 18 Oeste 0 -- -- 41
2019-10-03 10:00:00 19.6 7 Oeste 13 Oeste 0 -- -- 44
2019-10-03 09:00:00 17.7 4 Oeste 11 Sudoeste 0 -- -- 47
2019-10-03 08:00:00 17.3 4 Oeste 8 Oeste 0 -- -- 47
2019-10-03 07:00:00 17.5 3 Oeste 8 Sudoeste 0 -- -- 46
2019-10-03 06:00:00 18.2 4 Oeste 12 Sudoeste 0 -- -- 44
2019-10-03 05:00:00 18.9 5 Sudoeste 14 Oeste 0 -- -- 42
2019-10-03 04:00:00 19.9 5 Oeste 18 Noroeste 0 -- -- 40
2019-10-03 03:00:00 20.4 4 Noroeste 15 Noroeste 0 -- -- 38
2019-10-03 02:00:00 21 5 Noroeste 17 Noroeste 0 -- -- 37
2019-10-03 01:00:00 21.3 4 Noroeste 21 Noroeste 0 -- -- 37
2019-10-03 00:00:00 22.6 12 Norte 30 Norte 0 -- -- 35
2019-10-02 23:00:00 23.3 12 Norte 25 Norte 0 -- -- 35
2019-10-02 22:00:00 22.1 5 Norte 12 Noroeste 0 -- -- 45
2019-10-02 21:00:00 22.4 0 Calma 6 Sur 0 -- -- 46
2019-10-02 20:00:00 24.7 3 Sur 15 Sudeste 0 -- -- 38
2019-10-02 19:00:00 25.6 9 Este 22 Este 0 -- -- 40
2019-10-02 18:00:00 26.5 9 Sudeste 22 Este 0 -- -- 33
2019-10-02 17:00:00 28.1 4 Sudeste 20 Este 0 -- -- 27
2019-10-02 16:00:00 29.6 7 Sudeste 20 Norte 0 -- -- 23
2019-10-02 15:00:00 29 4 Sudoeste 19 Sudoeste 0 -- -- 24
2019-10-02 14:00:00 28.1 6 Oeste 21 Norte 0 -- -- 25
2019-10-02 13:00:00 27.2 10 Norte 35 Norte 0 -- -- 27
2019-10-02 12:00:00 25.3 10 Noroeste 24 Norte 0 -- -- 32
2019-10-02 11:00:00 23.9 5 Noroeste 16 Noroeste 0 -- -- 39
2019-10-02 10:00:00 22.8 6 Noroeste 24 Norte 0 -- -- 41
2019-10-02 09:00:00 19 3 Oeste 19 Noroeste 0 -- -- 51
2019-10-02 08:00:00 18.9 5 Noroeste 14 Noroeste 0 -- -- 48
2019-10-02 07:00:00 19.3 4 Oeste 11 Oeste 0 -- -- 46
2019-10-02 06:00:00 19.2 5 Sudoeste 9 Noroeste 0 -- -- 47
2019-10-02 05:00:00 19.7 3 Oeste 7 Oeste 0 -- -- 47
2019-10-02 04:00:00 20.7 5 Norte 9 Nordeste 0 -- -- 44
2019-10-02 03:00:00 21.7 5 Noroeste 11 Noroeste 0 -- -- 42
2019-10-02 02:00:00 21.7 3 Oeste 10 Noroeste 0 -- -- 48
2019-10-02 01:00:00 22.2 2 Noroeste 12 Noroeste 0 -- -- 55
2019-10-02 00:00:00 21.6 5 Oeste 11 Oeste 0 -- -- 76
2019-10-01 23:00:00 22.6 0 Calma 13 Norte 0 -- -- 79
2019-10-01 22:00:00 23.3 4 Norte 17 Nordeste 0 -- -- 73
2019-10-01 21:00:00 23.6 5 Norte 20 Nordeste 0 -- -- 73
2019-10-01 20:00:00 24.3 8 Norte 19 Norte 0 -- -- 76
2019-10-01 19:00:00 25.5 8 Norte 24 Norte 0 -- -- 73
2019-10-01 18:00:00 26.9 13 Norte 25 Norte 0 -- -- 65
2019-10-01 17:00:00 34.6 11 Sudoeste 24 Sudoeste 0 -- -- 17
2019-10-01 16:00:00 34.5 8 Sudoeste 21 Sudoeste 0 -- -- 22
2019-10-01 15:00:00 30.4 6 Sudeste 16 Este 0 -- -- 41
2019-10-01 14:00:00 31 2 Nordeste 10 Sur 0 -- -- 40
2019-10-01 13:00:00 29.7 0 Calma 10 Sudeste 0 -- -- 39
2019-10-01 12:00:00 27.2 5 Sudoeste 11 Oeste 0 -- -- 45
2019-10-01 11:00:00 24 0 Calma 7 Sudoeste 0 -- -- 60
2019-10-01 10:00:00 21.8 0 Calma 8 Oeste 0 -- -- 71
2019-10-01 09:00:00 19.7 0 Calma 4 Oeste 0 -- -- 87
2019-10-01 08:00:00 19.5 0 Calma 4 Oeste 0 -- -- 88
2019-10-01 07:00:00 19.8 0 Calma 6 Oeste 0 -- -- 87
2019-10-01 06:00:00 20.2 2 Sudoeste 6 Oeste 0 -- -- 86
2019-10-01 05:00:00 20.8 3 Oeste 8 Oeste 0 -- -- 86
2019-10-01 04:00:00 21.4 0 Calma 8 Oeste 0 -- -- 86
2019-10-01 03:00:00 21.6 2 Oeste 7 Sudoeste 0 -- -- 85
2019-10-01 02:00:00 21.7 2 Oeste 7 Oeste 0 -- -- 85
2019-10-01 01:00:00 22 0 Calma 6 Norte 0 -- -- 84
2019-10-01 00:00:00 22.4 2 Noroeste 9 Norte 0 -- -- 84
2019-09-30 23:00:00 22.9 4 Norte 9 Norte 0 -- -- 83
2019-09-30 22:00:00 23.2 4 Norte 10 Norte 0 -- -- 81
2019-09-30 21:00:00 23.7 3 Norte 9 Norte 0 -- -- 79
2019-09-30 20:00:00 24.1 3 Norte 10 Norte 0 -- -- 78
2019-09-30 19:00:00 24.7 3 Norte 15 Nordeste 0 -- -- 75
2019-09-30 18:00:00 25.3 2 Nordeste 17 Nordeste 0 -- -- 71
2019-09-30 17:00:00 26.2 3 Nordeste 21 Este 0 -- -- 66
2019-09-30 16:00:00 26.6 5 Este 23 Sudeste 0 -- -- 60
2019-09-30 15:00:00 27.2 3 Norte 23 Nordeste 0 -- -- 56
2019-09-30 14:00:00 26.8 3 Nordeste 23 Nordeste 0 -- -- 64
2019-09-30 13:00:00 27 5 Nordeste 21 Norte 0 -- -- 60
2019-09-30 12:00:00 26.1 9 Nordeste 21 Nordeste 0 -- -- 63
2019-09-30 11:00:00 24.6 5 Norte 14 Norte 0 -- -- 70
2019-09-30 10:00:00 22.4 5 Norte 12 Norte 0 -- -- 75
2019-09-30 09:00:00 19.5 4 Norte 9 Norte 0 -- -- 69
2019-09-30 08:00:00 17.2 0 Calma 5 Oeste 0 -- -- 63
2019-09-30 07:00:00 18 3 Norte 8 Noroeste 0 -- -- 62
2019-09-30 06:00:00 18.6 3 Oeste 8 Sudoeste 0 -- -- 73
2019-09-30 05:00:00 19.4 0 Calma 8 Oeste 0 -- -- 74
2019-09-30 04:00:00 20.2 0 Calma 8 Sudoeste 0 -- -- 73
2019-09-30 03:00:00 20.9 5 Sudoeste 8 Oeste 0 -- -- 71
2019-09-30 02:00:00 21.4 4 Oeste 12 Oeste 0 -- -- 69
2019-09-30 01:00:00 21.6 3 Sudoeste 8 Sudoeste 0 -- -- 67
2019-09-30 00:00:00 21.9 0 Calma 9 Nordeste 0 -- -- 68
2019-09-29 23:00:00 23.3 4 Norte 15 Norte 0 -- -- 62
2019-09-29 22:00:00 23.9 7 Norte 15 Norte 0 -- -- 67
2019-09-29 21:00:00 24.7 4 Norte 12 Nordeste 0 -- -- 72
2019-09-29 20:00:00 25.5 3 Norte 13 Nordeste 0 -- -- 63
2019-09-29 19:00:00 27.1 0 Calma 18 Sudeste 0 -- -- 49
2019-09-29 18:00:00 27.9 8 Sudeste 22 Sudeste 0 -- -- 41
2019-09-29 17:00:00 27.9 8 Sur 20 Este 0 -- -- 38
2019-09-29 16:00:00 28.3 11 Sudeste 20 Sudeste 0 -- -- 44
2019-09-29 15:00:00 27 10 Sudeste 22 Este 0 -- -- 54
2019-09-29 14:00:00 28 8 Sudeste 16 Sudeste 0 -- -- 48
2019-09-29 13:00:00 28.2 7 Sur 14 Sudoeste 0 -- -- 45
2019-09-29 12:00:00 26 3 Sur 12 Sudoeste 0 -- -- 47
2019-09-29 11:00:00 23.7 5 Sudoeste 11 Sudoeste 0 -- -- 57
2019-09-29 10:00:00 21.7 3 Sudoeste 8 Sudoeste 0 -- -- 71
2019-09-29 09:00:00 19.4 4 Oeste 9 Sudoeste 0 -- -- 82
2019-09-29 08:00:00 19.2 2 Sudoeste 7 Sudoeste 0 -- -- 86
2019-09-29 07:00:00 19.6 2 Sudoeste 6 Sudoeste 0 -- -- 86
2019-09-29 06:00:00 19.8 2 Oeste 6 Oeste 0 -- -- 86
2019-09-29 05:00:00 20.2 2 Sudoeste 7 Sudoeste 0 -- -- 86
2019-09-29 04:00:00 20.8 2 Oeste 6 Oeste 0 -- -- 87
2019-09-29 03:00:00 21.2 0 Calma 4 Oeste 0 -- -- 86
2019-09-29 02:00:00 21.4 0 Calma 5 Norte 0 -- -- 85
2019-09-29 01:00:00 21.8 0 Calma 4 Noroeste 0 -- -- 84
2019-09-29 00:00:00 22.4 0 Calma 8 Norte 0 -- -- 82
2019-09-28 23:00:00 22.9 4 Norte 8 Norte 0 -- -- 81
2019-09-28 22:00:00 23.4 3 Norte 9 Norte 0 -- -- 79
2019-09-28 21:00:00 23.5 0 Calma 9 Norte 0 -- -- 77
2019-09-28 20:00:00 24.1 0 Calma 10 Nordeste 0 -- -- 74
2019-09-28 19:00:00 24.9 2 Nordeste 13 Este 0 -- -- 69
2019-09-28 18:00:00 25.3 4 Nordeste 16 Este 0 -- -- 64
2019-09-28 17:00:00 26.1 4 Este 20 Sudeste 0 -- -- 60
2019-09-28 16:00:00 26.4 8 Este 19 Este 0 -- -- 58
2019-09-28 15:00:00 27.5 3 Nordeste 17 Este 0 -- -- 57
2019-09-28 14:00:00 27.6 5 Este 20 Sudeste 0 -- -- 58
2019-09-28 13:00:00 27.1 4 Nordeste 22 Nordeste 0 -- -- 57
2019-09-28 12:00:00 26.7 8 Norte 19 Norte 0 -- -- 58
2019-09-28 11:00:00 24.1 4 Sudoeste 8 Oeste 0 -- -- 52
2019-09-28 10:00:00 22 3 Oeste 8 Oeste 0 -- -- 60
2019-09-28 09:00:00 19.7 0 Calma 5 Oeste 0 -- -- 75
2019-09-28 08:00:00 19.2 0 Calma 6 Sudoeste 0 -- -- 82
2019-09-28 07:00:00 19.4 0 Calma 5 Oeste 0 -- -- 82
2019-09-28 06:00:00 19.3 0 Calma 6 Noroeste 0 -- -- 82
2019-09-28 05:00:00 19.6 0 Calma 10 Noroeste 0 -- -- 82
2019-09-28 04:00:00 20.4 0 Calma 8 Oeste 0 -- -- 79
2019-09-28 03:00:00 20.8 4 Oeste 8 Oeste 0 -- -- 79
2019-09-28 02:00:00 21.4 0 Calma 6 Noroeste 0 -- -- 82
2019-09-28 01:00:00 22.3 3 Norte 14 Norte 0 -- -- 81
2019-09-28 00:00:00 22.8 7 Norte 17 Norte 0 -- -- 82
2019-09-27 23:00:00 22.8 8 Norte 20 Norte 0 -- -- 82
2019-09-27 22:00:00 23.2 10 Norte 24 Norte 0 -- -- 81
2019-09-27 21:00:00 23.8 9 Norte 18 Norte 0 -- -- 78
2019-09-27 20:00:00 24.5 8 Norte 20 Norte 0 -- -- 71
2019-09-27 19:00:00 25.1 9 Norte 22 Norte 0 -- -- 67
2019-09-27 18:00:00 26.2 4 Nordeste 18 Sudeste 0 -- -- 60
2019-09-27 17:00:00 26.6 3 Nordeste 19 Este 0 -- -- 53
2019-09-27 16:00:00 26.7 9 Este 22 Este 0 -- -- 61
2019-09-27 15:00:00 27.6 6 Este 20 Este 0 -- -- 54
2019-09-27 14:00:00 27.6 8 Este 19 Este 0 -- -- 52
2019-09-27 13:00:00 28.8 3 Sudeste 13 Sudeste 0 -- -- 46
2019-09-27 12:00:00 27.9 2 Sudeste 10 Nordeste 0 -- -- 47
2019-09-27 11:00:00 25.2 0 Calma 8 Sur 0 -- -- 54
2019-09-27 10:00:00 22.9 4 Sudoeste 8 Oeste 0 -- -- 66
2019-09-27 09:00:00 20.4 0 Calma 8 Oeste 0 -- -- 80
2019-09-27 08:00:00 20.2 0 Calma 7 Sudoeste 0 -- -- 84
2019-09-27 07:00:00 20.5 3 Sudoeste 7 Oeste 0 -- -- 84
2019-09-27 06:00:00 20.7 0 Calma 7 Oeste 0 -- -- 85
2019-09-27 05:00:00 20.9 0 Calma 11 Sudoeste 0 -- -- 83
2019-09-27 04:00:00 21.3 3 Sudoeste 8 Oeste 0 -- -- 85
2019-09-27 03:00:00 21.6 2 Oeste 9 Sudoeste 0 -- -- 85
2019-09-27 02:00:00 21.8 0 Calma 5 Noroeste 0 -- -- 83
2019-09-27 01:00:00 22.4 2 Noroeste 12 Norte 0 -- -- 82
2019-09-27 00:00:00 23 6 Norte 14 Norte 0 -- -- 83
2019-09-26 23:00:00 23.3 6 Norte 14 Norte 0 -- -- 83
2019-09-26 22:00:00 23.7 6 Norte 12 Norte 0 -- -- 83
2019-09-26 21:00:00 24.1 4 Norte 10 Este 0 -- -- 79
2019-09-26 20:00:00 24.6 8 Sudeste 18 Este 0 -- -- 75
2019-09-26 19:00:00 25 6 Sudeste 23 Este 0 -- -- 72
2019-09-26 18:00:00 25.2 12 Sudeste 27 Este 0 -- -- 65
2019-09-26 17:00:00 25.5 13 Este 33 Este 0 -- -- 60
2019-09-26 16:00:00 26.5 12 Sudeste 26 Este 0 -- -- 55
2019-09-26 15:00:00 26.9 10 Sudeste 21 Este 0 -- -- 51
2019-09-26 14:00:00 26.9 8 Sudeste 19 Sudeste 0 -- -- 50
2019-09-26 13:00:00 27.8 3 Sudeste 14 Sudoeste 0 -- -- 45
2019-09-26 12:00:00 26.9 4 Oeste 14 Oeste 0 -- -- 48
2019-09-26 11:00:00 24.1 5 Sudoeste 12 Sudoeste 0 -- -- 50
2019-09-26 10:00:00 22.2 3 Sudoeste 10 Sudoeste 0 -- -- 61
2019-09-26 09:00:00 20 0 Calma 12 Oeste 0 -- -- 77
2019-09-26 08:00:00 19.6 0 Calma 7 Sudoeste 0 -- -- 82
2019-09-26 07:00:00 19.9 2 Sudoeste 8 Sudoeste 0 -- -- 83
2019-09-26 06:00:00 20.2 4 Sudoeste 7 Sudoeste 0 -- -- 82
2019-09-26 05:00:00 20.4 0 Calma 5 Oeste 0 -- -- 81
2019-09-26 04:00:00 20.8 2 Sudoeste 5 Sudoeste 0 -- -- 80
2019-09-26 03:00:00 21.1 0 Calma 5 Norte 0 -- -- 78
2019-09-26 02:00:00 21.6 0 Calma 6 Norte 0 -- -- 76
2019-09-26 01:00:00 22.1 2 Norte 7 Norte 0 -- -- 75
2019-09-26 00:00:00 22.4 4 Norte 6 Norte 0 -- -- 75
2019-09-25 23:00:00 22.7 0 Calma 5 Norte 0 -- -- 74
2019-09-25 22:00:00 23.2 2 Nordeste 9 Sudeste 0 -- -- 70
2019-09-25 21:00:00 23.5 0 Calma 10 Este 0 -- -- 67
2019-09-25 20:00:00 24.1 5 Este 16 Este 0 -- -- 65
2019-09-25 19:00:00 24.3 9 Este 24 Este 0 -- -- 62
2019-09-25 18:00:00 25 6 Este 24 Este 0 -- -- 60
2019-09-25 17:00:00 25.8 9 Este 26 Este 0 -- -- 52
2019-09-25 16:00:00 26.7 6 Este 29 Este 0 -- -- 46
2019-09-25 15:00:00 25.9 7 Este 30 Este 0 -- -- 53
2019-09-25 14:00:00 26.6 9 Este 30 Este 0 -- -- 53
2019-09-25 13:00:00 26.7 9 Este 23 Este 0 -- -- 54
2019-09-25 12:00:00 26.8 8 Este 18 Sudeste 0 -- -- 46
2019-09-25 11:00:00 27.1 4 Este 9 Este 0 -- -- 40
2019-09-25 10:00:00 25 3 Oeste 12 Oeste 0 -- -- 49
2019-09-25 09:00:00 22.1 2 Oeste 10 Noroeste 0 -- -- 58
2019-09-25 08:00:00 22.2 5 Sudoeste 16 Sudoeste 0 -- -- 53
2019-09-25 07:00:00 22.7 7 Oeste 24 Sudoeste 0 -- -- 49
2019-09-25 06:00:00 23.6 9 Sudoeste 22 Sudoeste 0 -- -- 44
2019-09-25 05:00:00 23.9 10 Oeste 18 Oeste 0 -- -- 40
2019-09-25 04:00:00 23.5 5 Sudoeste 12 Sudoeste 0 -- -- 37
2019-09-25 03:00:00 23.9 4 Sudoeste 14 Oeste 0 -- -- 34
2019-09-25 02:00:00 25.6 8 Sudoeste 18 Oeste 0 -- -- 30
2019-09-25 01:00:00 26.1 10 Oeste 18 Oeste 0 -- -- 29
2019-09-25 00:00:00 26.6 8 Oeste 18 Oeste 0 -- -- 28
2019-09-24 23:00:00 27.1 2 Oeste 17 Oeste 0 -- -- 27
2019-09-24 22:00:00 28 8 Oeste 23 Sudoeste 0 -- -- 25
2019-09-24 21:00:00 29.4 7 Sudoeste 28 Sudoeste 0 -- -- 23
2019-09-24 20:00:00 30.8 12 Sudoeste 33 Oeste 0 -- -- 21
2019-09-24 19:00:00 32.5 14 Sudoeste 31 Sudoeste 0 -- -- 20
2019-09-24 18:00:00 33.5 13 Sudoeste 31 Sudoeste 0 -- -- 20
2019-09-24 17:00:00 34 14 Sudoeste 33 Sudoeste 0 -- -- 20
2019-09-24 16:00:00 34 13 Sudoeste 33 Sudoeste 0 -- -- 21
2019-09-24 15:00:00 33.4 14 Sudoeste 30 Sudoeste 0 -- -- 23
2019-09-24 14:00:00 32.5 11 Sudoeste 23 Sudoeste 0 -- -- 24
2019-09-24 13:00:00 30.1 9 Sudoeste 25 Sudoeste 0 -- -- 27
2019-09-24 12:00:00 28.9 10 Sudoeste 23 Oeste 0 -- -- 30
2019-09-24 11:00:00 25.7 6 Sudoeste 15 Sudoeste 0 -- -- 39
2019-09-24 10:00:00 22.1 5 Sudoeste 13 Oeste 0 -- -- 49
2019-09-24 09:00:00 19.1 4 Sudoeste 10 Sudoeste 0 -- -- 68
2019-09-24 08:00:00 18.1 0 Calma 7 Oeste 0 -- -- 76
2019-09-24 07:00:00 18.4 3 Sudoeste 5 Sudoeste 0 -- -- 77
2019-09-24 06:00:00 19.1 2 Sudoeste 10 Oeste 0 -- -- 74
2019-09-24 05:00:00 19.6 4 Sudoeste 8 Sudoeste 0 -- -- 75
2019-09-24 04:00:00 19.9 4 Sudoeste 9 Sudoeste 0 -- -- 75
2019-09-24 03:00:00 20.3 3 Oeste 9 Oeste 0 -- -- 74
2019-09-24 02:00:00 20.8 0 Calma 5 Sudoeste 0 -- -- 73
2019-09-24 01:00:00 21.2 2 Noroeste 7 Noroeste 0 -- -- 71
2019-09-24 00:00:00 21.7 2 Noroeste 6 Norte 0 -- -- 71
2019-09-23 23:00:00 22.1 0 Calma 0 Calma 0 -- -- 73
2019-09-23 22:00:00 23.2 0 Calma 9 Sur 0 -- -- 67
2019-09-23 21:00:00 23.7 3 Sudoeste 13 Sudeste 0 -- -- 63
2019-09-23 20:00:00 23.9 8 Sudeste 17 Sudeste 0 -- -- 61
2019-09-23 19:00:00 24.6 6 Sudeste 18 Sudeste 0 -- -- 50
2019-09-23 18:00:00 25.1 10 Este 19 Este 0 -- -- 46
2019-09-23 17:00:00 25.5 8 Sudeste 18 Este 0 -- -- 41
2019-09-23 16:00:00 26.2 9 Este 17 Sudeste 0 -- -- 36
2019-09-23 15:00:00 26.4 6 Sudeste 18 Este 0 -- -- 36
2019-09-23 14:00:00 25.4 11 Este 18 Sudeste 0 -- -- 35
2019-09-23 13:00:00 27 4 Este 18 Este 0 -- -- 32
2019-09-23 12:00:00 26.8 3 Norte 11 Norte 0 -- -- 33
2019-09-23 11:00:00 23.8 2 Noroeste 14 Oeste 0 -- -- 38
2019-09-23 10:00:00 21.3 6 Oeste 15 Oeste 0 -- -- 40
2019-09-23 09:00:00 19.7 7 Oeste 14 Sudoeste 0 -- -- 42
2019-09-23 08:00:00 19.2 7 Oeste 15 Oeste 0 -- -- 42
2019-09-23 07:00:00 19.4 5 Oeste 12 Oeste 0 -- -- 41
2019-09-23 06:00:00 19.5 4 Sudoeste 9 Noroeste 0 -- -- 41
2019-09-23 05:00:00 20.3 2 Oeste 14 Oeste 0 -- -- 40
2019-09-23 04:00:00 21.2 5 Oeste 21 Noroeste 0 -- -- 38
2019-09-23 03:00:00 21.8 5 Oeste 16 Oeste 0 -- -- 39
2019-09-23 02:00:00 22.7 7 Oeste 19 Noroeste 0 -- -- 40
2019-09-23 01:00:00 23.5 5 Oeste 18 Sudoeste 0 -- -- 40
2019-09-23 00:00:00 24.5 5 Oeste 15 Oeste 0 -- -- 38
2019-09-22 23:00:00 25.2 3 Sudoeste 15 Oeste 0 -- -- 38
2019-09-22 22:00:00 26.3 7 Sudoeste 19 Noroeste 0 -- -- 38
2019-09-22 21:00:00 27 6 Noroeste 27 Oeste 0 -- -- 37
2019-09-22 20:00:00 28.4 12 Oeste 30 Oeste 0 -- -- 33
2019-09-22 19:00:00 30 12 Oeste 26 Sudoeste 0 -- -- 31
2019-09-22 18:00:00 30.1 9 Oeste 31 Oeste 0 -- -- 31
2019-09-22 17:00:00 30.6 13 Sudoeste 34 Sudoeste 0 -- -- 30
2019-09-22 16:00:00 31.4 13 Sudoeste 33 Sudoeste 0 -- -- 31
2019-09-22 15:00:00 30.7 13 Sudoeste 32 Oeste 0 -- -- 32
2019-09-22 14:00:00 30.8 12 Oeste 30 Sudoeste 0 -- -- 33
2019-09-22 13:00:00 29.2 13 Sudoeste 27 Sudoeste 0 -- -- 35
2019-09-22 12:00:00 28.3 8 Sudoeste 20 Sudoeste 0 -- -- 39
2019-09-22 11:00:00 26.3 10 Oeste 22 Sudoeste 0 -- -- 42
2019-09-22 10:00:00 24.3 6 Oeste 15 Oeste 0 -- -- 53
2019-09-22 09:00:00 21.9 3 Oeste 10 Oeste 0 -- -- 62
2019-09-22 08:00:00 22.2 3 Sudoeste 12 Sur 0 -- -- 64
2019-09-22 07:00:00 22.4 0 Calma 4 Sudoeste 0 -- -- 89
2019-09-22 06:00:00 22.6 0 Calma 4 Sur 0 -- -- 89
2019-09-22 05:00:00 22.2 0 Calma 0 Calma 0 -- -- 89
2019-09-22 04:00:00 22.6 0 Calma 3 Norte 0 -- -- 88
2019-09-22 03:00:00 23.1 0 Calma 6 Norte 0 -- -- 86
2019-09-22 02:00:00 23.5 3 Norte 10 Norte 0 -- -- 85
2019-09-22 01:00:00 23.9 6 Norte 15 Norte 0 -- -- 82
2019-09-22 00:00:00 24.2 5 Norte 20 Norte 0 -- -- 81
2019-09-21 23:00:00 24.6 3 Norte 12 Norte 0 -- -- 80
2019-09-21 22:00:00 24.6 0 Calma 6 Este 0 -- -- 74
2019-09-21 21:00:00 25 2 Sudeste 12 Sudoeste 0 -- -- 71
2019-09-21 20:00:00 25.2 8 Sudeste 17 Sudeste 0 -- -- 69
2019-09-21 19:00:00 25.4 8 Sudeste 19 Sudoeste 0 -- -- 64
2019-09-21 18:00:00 26.6 5 Sudeste 21 Sur 0 -- -- 55
2019-09-21 17:00:00 27.2 5 Sudeste 18 Sudeste 0 -- -- 53
2019-09-21 16:00:00 27.6 5 Sudeste 18 Sudeste 0 -- -- 50
2019-09-21 15:00:00 27.2 3 Sudeste 18 Sudeste 0 -- -- 52
2019-09-21 14:00:00 26.4 3 Sudeste 18 Sudeste 0 -- -- 54
2019-09-21 13:00:00 26.7 6 Este 16 Este 0 -- -- 48
2019-09-21 12:00:00 26.9 3 Norte 10 Oeste 0 -- -- 49
2019-09-21 11:00:00 24.1 4 Oeste 9 Sudoeste 0 -- -- 62
2019-09-21 10:00:00 22.6 0 Calma 10 Norte 0 -- -- 68
2019-09-21 09:00:00 22.1 0 Calma 9 Noroeste 0 -- -- 76
2019-09-21 08:00:00 21.7 0 Calma 9 Noroeste 0 -- -- 79
2019-09-21 07:00:00 21.7 3 Norte 10 Norte 0 -- -- 79
2019-09-21 06:00:00 21.9 4 Norte 16 Norte 0 -- -- 79
2019-09-21 05:00:00 22 7 Norte 15 Norte 0 -- -- 79
2019-09-21 04:00:00 22.4 7 Norte 15 Norte 0 -- -- 78
2019-09-21 03:00:00 22.6 4 Norte 19 Norte 0 -- -- 78
2019-09-21 02:00:00 22.8 6 Norte 16 Norte 0 -- -- 78
2019-09-21 01:00:00 23.6 3 Este 19 Este 0 -- -- 78
2019-09-21 00:00:00 23.7 0 Calma 17 Norte 0 -- -- 79
2019-09-20 23:00:00 23.8 0 Calma 12 Este 0 -- -- 78
2019-09-20 22:00:00 23.8 4 Sudeste 14 Este 0 -- -- 76
2019-09-20 21:00:00 23.9 2 Este 15 Este 0 -- -- 78
2019-09-20 20:00:00 24.1 3 Nordeste 16 Este 0 -- -- 75
2019-09-20 19:00:00 24.5 6 Este 19 Este 0 -- -- 71
2019-09-20 18:00:00 24.9 3 Norte 20 Este 0 -- -- 71
2019-09-20 17:00:00 25 4 Este 20 Este 0 -- -- 71
2019-09-20 16:00:00 25.9 5 Nordeste 21 Este 0 -- -- 65
2019-09-20 15:00:00 25.6 4 Este 25 Este 0 -- -- 67
2019-09-20 14:00:00 25.4 3 Sudeste 27 Este 0 -- -- 67
2019-09-20 13:00:00 25.9 7 Nordeste 21 Nordeste 0 -- -- 65
2019-09-20 12:00:00 24.9 6 Nordeste 17 Nordeste 0 -- -- 63
2019-09-20 11:00:00 24.7 8 Norte 18 Norte 0 -- -- 67
2019-09-20 10:00:00 23 4 Norte 12 Norte 0 -- -- 76
2019-09-20 09:00:00 21.8 0 Calma 8 Noroeste 0 -- -- 78
2019-09-20 08:00:00 21.2 0 Calma 7 Norte 0 -- -- 81
2019-09-20 07:00:00 21 2 Norte 7 Norte 0 -- -- 83
2019-09-20 06:00:00 21.3 3 Norte 8 Norte 0 -- -- 83
2019-09-20 05:00:00 21.5 0 Calma 10 Norte 0 -- -- 84
2019-09-20 04:00:00 21.9 4 Norte 11 Norte 0 -- -- 84
2019-09-20 03:00:00 22 2 Norte 8 Norte 0 -- -- 84
2019-09-20 02:00:00 22 0 Calma 6 Norte 0 -- -- 84
2019-09-20 01:00:00 21.9 3 Norte 6 Norte 0 -- -- 84
2019-09-20 00:00:00 22.6 0 Calma 6 Norte 0 -- -- 81